createdAt,value
2023-05-02T00:00:06.643Z,10.91
2023-05-02T00:02:54.863Z,10.90
2023-05-02T00:05:23.256Z,10.89
2023-05-02T00:07:54.380Z,10.89
2023-05-02T00:10:22.194Z,10.88
2023-05-02T00:12:50.012Z,10.88
2023-05-02T00:15:17.848Z,10.87
2023-05-02T00:17:45.815Z,10.86
2023-05-02T00:20:13.882Z,10.85
2023-05-02T00:22:41.689Z,10.85
2023-05-02T00:25:10.117Z,10.85
2023-05-02T00:27:37.980Z,10.84
2023-05-02T00:30:06.750Z,10.83
2023-05-02T00:32:34.779Z,10.83
2023-05-02T00:35:02.776Z,10.83
2023-05-02T00:37:30.664Z,10.83
2023-05-02T00:39:59.256Z,10.83
2023-05-02T00:42:29.364Z,11.27
2023-05-02T00:44:57.788Z,13.06
2023-05-02T00:47:25.873Z,14.16
2023-05-02T00:49:53.589Z,13.58
2023-05-02T00:52:21.480Z,12.98
2023-05-02T00:54:49.722Z,12.62
2023-05-02T00:57:17.566Z,12.38
2023-05-02T00:59:45.433Z,12.22
2023-05-02T01:02:53.245Z,12.07
2023-05-02T01:05:45.238Z,11.94
2023-05-02T01:08:56.164Z,11.83
2023-05-02T01:11:36.576Z,11.73
2023-05-02T01:14:06.270Z,11.65
2023-05-02T01:16:37.270Z,11.60
2023-05-02T01:19:06.198Z,11.55
2023-05-02T01:21:34.205Z,11.50
2023-05-02T01:24:20.513Z,11.45
2023-05-02T01:26:58.602Z,11.41
2023-05-02T01:29:27.913Z,11.39
2023-05-02T01:31:56.975Z,11.37
2023-05-02T01:34:26.093Z,11.78
2023-05-02T01:36:54.767Z,13.54
2023-05-02T01:39:24.632Z,14.65
2023-05-02T01:41:54.816Z,14.06
2023-05-02T01:44:24.497Z,13.44
2023-05-02T01:46:53.375Z,13.06
2023-05-02T01:49:23.961Z,12.81
2023-05-02T01:51:52.833Z,12.64
2023-05-02T01:54:23.665Z,12.51
2023-05-02T01:56:52.347Z,12.40
2023-05-02T01:59:22.949Z,12.30
2023-05-02T02:01:52.094Z,12.23
2023-05-02T02:04:21.427Z,12.16
2023-05-02T02:06:55.798Z,12.10
2023-05-02T02:09:23.968Z,12.56
2023-05-02T02:12:36.872Z,14.31
2023-05-02T02:15:16.780Z,15.25
2023-05-02T02:17:50.519Z,14.45
2023-05-02T02:20:18.995Z,13.88
2023-05-02T02:22:48.128Z,13.54
2023-05-02T02:25:17.795Z,13.30
2023-05-02T02:27:45.669Z,13.14
2023-05-02T02:30:14.069Z,13.44
2023-05-02T02:32:42.423Z,15.13
2023-05-02T02:35:10.946Z,16.12
2023-05-02T02:37:44.378Z,15.47
2023-05-02T02:40:22.192Z,14.77
2023-05-02T02:43:12.901Z,14.32
2023-05-02T02:46:07.785Z,13.99
2023-05-02T02:49:02.886Z,13.75
2023-05-02T02:51:40.062Z,13.55
2023-05-02T02:54:55.128Z,13.88
2023-05-02T02:58:14.095Z,16.05
2023-05-02T03:00:41.849Z,16.31
2023-05-02T03:03:09.969Z,15.49
2023-05-02T03:05:38.554Z,14.88
2023-05-02T03:08:06.730Z,14.48
2023-05-02T03:10:35.411Z,14.17
2023-05-02T03:13:03.285Z,13.94
2023-05-02T03:15:48.843Z,14.21
2023-05-02T03:18:16.841Z,16.01
2023-05-02T03:20:44.807Z,16.80
2023-05-02T03:23:12.615Z,15.99
2023-05-02T03:25:40.375Z,15.24
2023-05-02T03:28:08.155Z,14.74
2023-05-02T03:30:35.879Z,14.37
2023-05-02T03:33:04.865Z,14.62
2023-05-02T03:35:32.664Z,16.20
2023-05-02T03:38:01.193Z,17.08
2023-05-02T03:40:29.014Z,16.30
2023-05-02T03:42:56.883Z,15.50
2023-05-02T03:45:24.697Z,15.04
2023-05-02T03:47:52.554Z,16.04
2023-05-02T03:50:20.571Z,17.35
2023-05-02T03:52:48.415Z,16.94
2023-05-02T03:55:16.322Z,16.06
2023-05-02T03:57:44.229Z,15.42
2023-05-02T04:00:12.521Z,15.03
2023-05-02T04:02:40.465Z,15.99
2023-05-02T04:05:08.753Z,17.50
2023-05-02T04:07:36.665Z,17.85
2023-05-02T04:10:05.027Z,16.88
2023-05-02T04:12:32.902Z,16.05
2023-05-02T04:15:00.791Z,15.49
2023-05-02T04:17:28.840Z,15.65
2023-05-02T04:19:57.023Z,17.14
2023-05-02T04:22:24.849Z,17.93
2023-05-02T04:24:53.860Z,17.09
2023-05-02T04:27:21.703Z,16.25
2023-05-02T04:29:50.692Z,15.67
2023-05-02T04:32:18.567Z,15.85
2023-05-02T04:34:46.478Z,17.38
2023-05-02T04:37:14.330Z,18.11
2023-05-02T04:39:42.087Z,17.24
2023-05-02T04:42:09.878Z,16.40
2023-05-02T04:44:37.704Z,15.82
2023-05-02T04:47:05.531Z,15.99
2023-05-02T04:49:33.336Z,17.47
2023-05-02T04:52:01.133Z,18.14
2023-05-02T04:54:29.330Z,17.24
2023-05-02T04:56:57.231Z,16.42
2023-05-02T04:59:25.030Z,15.85
2023-05-02T05:01:52.848Z,15.45
2023-05-02T05:04:20.702Z,15.88
2023-05-02T05:06:49.377Z,17.46
2023-05-02T05:09:17.209Z,18.15
2023-05-02T05:11:46.275Z,17.25
2023-05-02T05:14:14.227Z,16.43
2023-05-02T05:16:42.257Z,15.86
2023-05-02T05:19:10.375Z,15.95
2023-05-02T05:21:38.252Z,17.44
2023-05-02T05:24:06.604Z,18.14
2023-05-02T05:26:34.396Z,17.26
2023-05-02T05:29:02.252Z,16.45
2023-05-02T05:31:30.129Z,15.90
2023-05-02T05:33:58.096Z,16.02
2023-05-02T05:36:26.568Z,17.52
2023-05-02T05:38:54.321Z,18.38
2023-05-02T05:41:23.149Z,17.55
2023-05-02T05:43:50.914Z,16.68
2023-05-02T05:46:18.683Z,16.07
2023-05-02T05:48:46.481Z,16.07
2023-05-02T05:51:14.270Z,17.51
2023-05-02T05:53:42.048Z,18.27
2023-05-02T05:56:11.837Z,17.45
2023-05-02T05:58:40.203Z,16.67
2023-05-02T06:01:08.338Z,16.12
2023-05-02T06:03:36.482Z,16.10
2023-05-02T06:06:07.428Z,17.56
2023-05-02T06:08:35.661Z,18.45
2023-05-02T06:11:03.759Z,17.70
2023-05-02T06:13:31.533Z,16.98
2023-05-02T06:16:02.846Z,16.55
2023-05-02T06:18:30.808Z,16.26
2023-05-02T06:20:58.725Z,16.84
2023-05-02T06:23:27.394Z,18.54
2023-05-02T06:25:59.509Z,19.09
2023-05-02T06:28:27.803Z,18.29
2023-05-02T06:30:59.707Z,17.65
2023-05-02T06:33:29.161Z,17.27
2023-05-02T06:35:59.111Z,16.99
2023-05-02T06:38:27.723Z,16.78
2023-05-02T06:40:58.246Z,17.04
2023-05-02T06:43:26.246Z,18.71
2023-05-02T06:45:56.390Z,19.68
2023-05-02T06:48:24.801Z,19.09
2023-05-02T06:50:54.151Z,18.46
2023-05-02T06:53:22.135Z,18.06
2023-05-02T06:55:58.135Z,17.85
2023-05-02T06:58:26.328Z,17.72
2023-05-02T07:00:54.135Z,17.64
2023-05-02T07:03:22.105Z,17.59
2023-05-02T07:05:49.880Z,17.53
2023-05-02T07:08:18.778Z,17.51
2023-05-02T07:10:46.540Z,17.50
2023-05-02T07:13:14.336Z,17.52
2023-05-02T07:15:43.168Z,17.54
2023-05-02T07:18:11.462Z,17.59
2023-05-02T07:20:41.489Z,17.66
2023-05-02T07:23:09.461Z,17.72
2023-05-02T07:25:40.126Z,17.79
2023-05-02T07:28:08.754Z,17.85
2023-05-02T07:30:36.714Z,17.91
2023-05-02T07:33:04.708Z,17.95
2023-05-02T07:35:32.601Z,17.98
2023-05-02T07:38:00.639Z,18.02
2023-05-02T07:40:28.679Z,18.06
2023-05-02T07:42:58.333Z,18.12
2023-05-02T07:45:26.223Z,18.16
2023-05-02T07:47:54.149Z,18.20
2023-05-02T07:50:22.935Z,18.24
2023-05-02T07:52:50.856Z,18.26
2023-05-02T07:55:18.921Z,18.29
2023-05-02T07:57:46.826Z,18.32
2023-05-02T08:00:15.495Z,18.33
2023-05-02T08:02:43.503Z,18.32
2023-05-02T08:05:11.586Z,18.32
2023-05-02T08:07:39.732Z,18.33
2023-05-02T08:10:08.723Z,18.36
2023-05-02T08:12:41.373Z,18.42
2023-05-02T08:15:12.226Z,18.48
2023-05-02T08:17:40.153Z,18.53
2023-05-02T08:20:08.662Z,18.56
2023-05-02T08:22:36.606Z,18.62
2023-05-02T08:25:04.946Z,18.70
2023-05-02T08:27:32.774Z,18.81
2023-05-02T08:30:01.215Z,18.93
2023-05-02T08:32:30.137Z,19.05
2023-05-02T08:35:00.246Z,19.15
2023-05-02T08:37:28.061Z,19.26
2023-05-02T08:39:56.306Z,19.38
2023-05-02T08:42:24.924Z,19.50
2023-05-02T08:44:52.938Z,19.61
2023-05-02T08:47:21.867Z,19.73
2023-05-02T08:49:50.296Z,19.82
2023-05-02T08:52:19.862Z,19.89
2023-05-02T08:54:47.822Z,19.98
2023-05-02T08:57:15.785Z,20.09
2023-05-02T08:59:43.762Z,20.22
2023-05-02T09:02:24.419Z,20.36
2023-05-02T09:04:55.925Z,20.53
2023-05-02T09:07:23.765Z,20.68
2023-05-02T09:09:51.869Z,20.82
2023-05-02T09:12:26.863Z,20.96
2023-05-02T09:15:20.608Z,21.11
2023-05-02T09:17:49.369Z,21.28
2023-05-02T09:20:17.869Z,21.41
2023-05-02T09:22:51.089Z,21.51
2023-05-02T09:25:20.728Z,21.56
2023-05-02T09:27:53.314Z,21.60
2023-05-02T09:30:24.059Z,21.68
2023-05-02T09:32:55.648Z,21.78
2023-05-02T09:35:24.226Z,21.89
2023-05-02T09:37:57.150Z,21.98
2023-05-02T09:40:28.357Z,22.09
2023-05-02T09:42:56.302Z,22.21
2023-05-02T09:45:26.168Z,22.33
2023-05-02T09:47:54.310Z,22.45
2023-05-02T09:50:38.609Z,22.59
2023-05-02T09:53:09.921Z,22.73
2023-05-02T09:55:38.076Z,22.85
2023-05-02T09:58:06.650Z,22.92
2023-05-02T10:00:41.143Z,23.00
2023-05-02T10:03:09.727Z,23.07
2023-05-02T10:05:39.634Z,23.14
2023-05-02T10:08:09.597Z,23.25
2023-05-02T10:10:40.622Z,23.35
2023-05-02T10:13:09.265Z,23.43
2023-05-02T10:15:43.248Z,23.50
2023-05-02T10:18:21.693Z,23.59
2023-05-02T10:20:58.769Z,23.69
2023-05-02T10:23:28.638Z,23.82
2023-05-02T10:26:00.152Z,23.91
2023-05-02T10:28:28.574Z,23.97
2023-05-02T10:30:58.632Z,24.04
2023-05-02T10:33:27.013Z,24.12
2023-05-02T10:35:54.888Z,24.16
2023-05-02T10:38:24.898Z,24.21
2023-05-02T10:41:19.173Z,24.25
2023-05-02T10:43:49.262Z,24.33
2023-05-02T10:46:34.314Z,24.40
2023-05-02T10:49:12.771Z,24.48
2023-05-02T10:51:42.949Z,24.54
2023-05-02T10:54:26.003Z,24.60
2023-05-02T10:57:08.970Z,24.65
2023-05-02T10:59:39.019Z,24.70
2023-05-02T11:02:25.422Z,24.74
2023-05-02T11:05:05.143Z,24.78
2023-05-02T11:07:37.567Z,24.82
2023-05-02T11:10:17.239Z,24.80
2023-05-02T11:12:52.873Z,24.79
2023-05-02T11:15:27.728Z,24.78
2023-05-02T11:18:09.249Z,24.69
2023-05-02T11:20:44.004Z,24.66
2023-05-02T11:23:15.651Z,24.61
2023-05-02T11:25:56.884Z,24.51
2023-05-02T11:28:36.841Z,24.43
2023-05-02T11:31:10.967Z,24.36
2023-05-02T11:33:39.075Z,24.34
2023-05-02T11:36:07.194Z,24.31
2023-05-02T11:38:38.720Z,24.26
2023-05-02T11:41:06.692Z,24.22
2023-05-02T11:43:35.069Z,24.13
2023-05-02T11:46:04.334Z,24.07
2023-05-02T11:48:32.365Z,24.04
2023-05-02T11:51:05.655Z,24.06
2023-05-02T11:53:33.946Z,24.09
2023-05-02T11:56:04.957Z,24.02
2023-05-02T11:58:33.919Z,23.91
2023-05-02T12:01:16.100Z,23.77
2023-05-02T12:03:50.072Z,23.59
2023-05-02T12:06:20.034Z,23.42
2023-05-02T12:08:49.385Z,23.27
2023-05-02T12:11:17.511Z,23.14
2023-05-02T12:13:48.414Z,23.00
2023-05-02T12:16:18.033Z,22.89
2023-05-02T12:18:47.524Z,22.86
2023-05-02T12:21:15.533Z,22.84
2023-05-02T12:23:43.739Z,22.84
2023-05-02T12:26:29.300Z,22.88
2023-05-02T12:28:58.962Z,22.88
2023-05-02T12:31:31.601Z,22.88
2023-05-02T12:34:01.107Z,22.88
2023-05-02T12:36:29.539Z,22.83
2023-05-02T12:39:02.701Z,22.73
2023-05-02T12:41:34.742Z,22.60
2023-05-02T12:44:03.591Z,22.49
2023-05-02T12:46:32.105Z,22.39
2023-05-02T12:49:09.424Z,22.29
2023-05-02T12:51:39.156Z,22.19
2023-05-02T12:54:07.502Z,22.09
2023-05-02T12:56:44.674Z,21.98
2023-05-02T12:59:30.444Z,21.87
2023-05-02T13:01:59.527Z,21.72
2023-05-02T13:04:37.566Z,21.58
2023-05-02T13:07:05.511Z,21.42
2023-05-02T13:09:33.510Z,21.26
2023-05-02T13:12:03.815Z,21.09
2023-05-02T13:14:32.281Z,20.94
2023-05-02T13:17:00.498Z,20.80
2023-05-02T13:19:31.447Z,20.66
2023-05-02T13:21:59.686Z,20.56
2023-05-02T13:24:27.769Z,20.43
2023-05-02T13:26:55.716Z,20.30
2023-05-02T13:29:23.574Z,20.22
2023-05-02T13:31:51.626Z,20.14
2023-05-02T13:34:19.554Z,20.08
2023-05-02T13:36:47.539Z,20.05
2023-05-02T13:39:15.342Z,20.01
2023-05-02T13:41:43.382Z,19.93
2023-05-02T13:44:11.203Z,19.86
2023-05-02T13:46:39.588Z,19.81
2023-05-02T13:49:07.492Z,19.77
2023-05-02T13:51:35.578Z,19.69
2023-05-02T13:54:03.484Z,19.65
2023-05-02T13:56:31.391Z,19.62
2023-05-02T13:58:59.382Z,19.61
2023-05-02T14:01:28.326Z,19.56
2023-05-02T14:03:56.393Z,19.49
2023-05-02T14:06:24.795Z,19.45
2023-05-02T14:08:52.752Z,19.40
2023-05-02T14:11:20.797Z,19.33
2023-05-02T14:13:48.779Z,19.27
2023-05-02T14:16:16.754Z,19.21
2023-05-02T14:18:45.676Z,19.13
2023-05-02T14:21:13.457Z,19.07
2023-05-02T14:23:41.280Z,19.00
2023-05-02T14:26:09.388Z,18.91
2023-05-02T14:28:38.469Z,18.86
2023-05-02T14:31:07.940Z,18.84
2023-05-02T14:33:36.145Z,18.76
2023-05-02T14:36:04.727Z,18.70
2023-05-02T14:38:32.919Z,18.62
2023-05-02T14:41:02.849Z,18.55
2023-05-02T14:43:31.046Z,18.47
2023-05-02T14:46:02.749Z,18.41
2023-05-02T14:48:30.759Z,18.36
2023-05-02T14:51:00.723Z,18.27
2023-05-02T14:53:28.487Z,18.20
2023-05-02T14:55:56.294Z,18.19
2023-05-02T14:58:26.790Z,18.13
2023-05-02T15:00:54.792Z,18.06
2023-05-02T15:03:23.068Z,18.02
2023-05-02T15:05:51.150Z,17.96
2023-05-02T15:08:19.661Z,17.91
2023-05-02T15:10:47.925Z,17.86
2023-05-02T15:13:15.957Z,17.82
2023-05-02T15:15:47.334Z,17.77
2023-05-02T15:18:15.515Z,17.74
2023-05-02T15:20:44.650Z,17.72
2023-05-02T15:23:12.518Z,17.68
2023-05-02T15:25:40.672Z,17.64
2023-05-02T15:28:08.804Z,17.59
2023-05-02T15:30:36.761Z,17.52
2023-05-02T15:33:04.830Z,17.48
2023-05-02T15:35:32.731Z,17.46
2023-05-02T15:38:00.739Z,17.42
2023-05-02T15:40:28.711Z,17.38
2023-05-02T15:42:56.619Z,17.35
2023-05-02T15:45:24.657Z,17.32
2023-05-02T15:47:52.819Z,17.29
2023-05-02T15:50:20.754Z,17.29
2023-05-02T15:52:48.600Z,17.28
2023-05-02T15:55:16.899Z,17.27
2023-05-02T15:57:44.913Z,17.27
2023-05-02T16:00:16.863Z,17.30
2023-05-02T16:02:45.078Z,17.33
2023-05-02T16:05:13.275Z,17.35
2023-05-02T16:07:41.120Z,17.34
2023-05-02T16:10:10.080Z,17.32
2023-05-02T16:12:37.982Z,17.31
2023-05-02T16:15:08.365Z,17.31
2023-05-02T16:17:36.223Z,17.31
2023-05-02T16:20:05.786Z,17.30
2023-05-02T16:22:33.772Z,17.27
2023-05-02T16:25:01.660Z,17.23
2023-05-02T16:27:29.661Z,17.19
2023-05-02T16:29:58.995Z,17.16
2023-05-02T16:32:28.159Z,17.12
2023-05-02T16:34:56.122Z,17.11
2023-05-02T16:37:24.008Z,17.07
2023-05-02T16:39:51.989Z,16.99
2023-05-02T16:42:20.001Z,16.93
2023-05-02T16:44:48.019Z,16.88
2023-05-02T16:47:15.947Z,16.84
2023-05-02T16:49:43.769Z,16.81
2023-05-02T16:52:11.730Z,16.78
2023-05-02T16:54:39.625Z,16.71
2023-05-02T16:57:08.251Z,16.65
2023-05-02T16:59:37.174Z,16.60
2023-05-02T17:02:05.071Z,16.55
2023-05-02T17:04:33.023Z,16.49
2023-05-02T17:07:00.782Z,16.43
2023-05-02T17:09:28.560Z,16.38
2023-05-02T17:11:56.442Z,16.32
2023-05-02T17:14:24.385Z,16.26
2023-05-02T17:16:52.352Z,16.20
2023-05-02T17:19:20.297Z,16.13
2023-05-02T17:21:48.351Z,16.07
2023-05-02T17:24:16.220Z,15.99
2023-05-02T17:26:44.168Z,15.94
2023-05-02T17:29:12.490Z,15.87
2023-05-02T17:31:40.723Z,15.80
2023-05-02T17:34:08.920Z,15.71
2023-05-02T17:36:36.925Z,15.66
2023-05-02T17:39:04.729Z,15.60
2023-05-02T17:41:35.997Z,15.55
2023-05-02T17:44:05.101Z,15.51
2023-05-02T17:46:33.632Z,15.45
2023-05-02T17:49:01.642Z,15.40
2023-05-02T17:51:29.535Z,15.35
2023-05-02T17:53:57.349Z,15.29
2023-05-02T17:56:25.220Z,15.25
2023-05-02T17:58:53.831Z,15.21
2023-05-02T18:01:21.879Z,15.16
2023-05-02T18:03:50.072Z,15.11
2023-05-02T18:06:18.819Z,15.06
2023-05-02T18:08:46.980Z,15.02
2023-05-02T18:11:19.552Z,14.99
2023-05-02T18:13:48.494Z,14.97
2023-05-02T18:16:18.148Z,14.95
2023-05-02T18:18:46.242Z,14.90
2023-05-02T18:21:22.159Z,14.86
2023-05-02T18:23:50.094Z,14.81
2023-05-02T18:26:18.238Z,14.77
2023-05-02T18:28:53.466Z,14.74
2023-05-02T18:31:22.406Z,14.70
2023-05-02T18:33:51.670Z,14.65
2023-05-02T18:36:27.252Z,14.60
2023-05-02T18:38:56.297Z,14.55
2023-05-02T18:41:24.356Z,14.50
2023-05-02T18:43:53.242Z,14.45
2023-05-02T18:46:21.300Z,14.40
2023-05-02T18:48:49.135Z,14.35
2023-05-02T18:51:17.291Z,14.29
2023-05-02T18:53:45.225Z,14.23
2023-05-02T18:56:16.812Z,14.17
2023-05-02T18:58:46.125Z,14.13
2023-05-02T19:01:15.912Z,14.08
2023-05-02T19:03:44.288Z,14.04
2023-05-02T19:06:14.068Z,14.00
2023-05-02T19:08:42.366Z,13.98
2023-05-02T19:11:10.209Z,13.94
2023-05-02T19:13:38.791Z,13.92
2023-05-02T19:16:16.400Z,13.89
2023-05-02T19:18:46.805Z,13.84
2023-05-02T19:21:14.738Z,13.81
2023-05-02T19:23:44.706Z,13.78
2023-05-02T19:26:20.614Z,13.76
2023-05-02T19:28:48.560Z,13.74
2023-05-02T19:31:19.514Z,13.71
2023-05-02T19:33:58.064Z,13.66
2023-05-02T19:36:27.482Z,13.62
2023-05-02T19:38:58.096Z,13.58
2023-05-02T19:41:26.325Z,13.52
2023-05-02T19:43:56.562Z,13.48
2023-05-02T19:46:24.344Z,13.42
2023-05-02T19:48:52.425Z,13.39
2023-05-02T19:51:25.896Z,13.34
2023-05-02T19:53:54.540Z,13.28
2023-05-02T19:56:26.844Z,13.24
2023-05-02T19:58:56.876Z,13.19
2023-05-02T20:01:31.473Z,13.17
2023-05-02T20:04:00.316Z,13.12
2023-05-02T20:06:28.602Z,13.08
2023-05-02T20:08:56.495Z,13.04
2023-05-02T20:11:25.974Z,12.99
2023-05-02T20:13:54.539Z,12.96
2023-05-02T20:16:22.500Z,12.94
2023-05-02T20:18:51.309Z,12.91
2023-05-02T20:21:19.086Z,12.88
2023-05-02T20:23:47.161Z,12.85
2023-05-02T20:26:17.252Z,12.82
2023-05-02T20:28:48.276Z,12.80
2023-05-02T20:31:16.360Z,12.77
2023-05-02T20:33:46.049Z,12.74
2023-05-02T20:36:15.045Z,12.72
2023-05-02T20:38:44.734Z,12.71
2023-05-02T20:41:15.371Z,12.68
2023-05-02T20:43:47.237Z,12.66
2023-05-02T20:46:19.096Z,12.65
2023-05-02T20:48:47.721Z,12.63
2023-05-02T20:51:16.147Z,12.61
2023-05-02T20:53:44.768Z,12.59
2023-05-02T20:56:13.243Z,12.56
2023-05-02T20:58:41.276Z,12.54
2023-05-02T21:01:09.591Z,12.52
2023-05-02T21:03:40.706Z,12.50
2023-05-02T21:06:08.758Z,12.47
2023-05-02T21:08:36.880Z,12.45
2023-05-02T21:11:15.068Z,12.42
2023-05-02T21:13:43.714Z,12.39
2023-05-02T21:16:19.485Z,12.36
2023-05-02T21:18:47.960Z,12.34
2023-05-02T21:21:15.974Z,12.32
2023-05-02T21:23:43.928Z,12.29
2023-05-02T21:26:11.724Z,12.26
2023-05-02T21:28:40.052Z,12.25
2023-05-02T21:31:08.041Z,12.24
2023-05-02T21:33:36.028Z,12.22
2023-05-02T21:36:04.262Z,12.18
2023-05-02T21:38:32.060Z,12.15
2023-05-02T21:41:04.742Z,12.14
2023-05-02T21:43:39.685Z,12.11
2023-05-02T21:46:07.621Z,12.07
2023-05-02T21:48:35.662Z,12.03
2023-05-02T21:51:08.497Z,11.98
2023-05-02T21:53:36.431Z,11.92
2023-05-02T21:56:06.708Z,11.89
2023-05-02T21:58:34.644Z,11.85
2023-05-02T22:01:03.222Z,11.82
2023-05-02T22:03:31.228Z,11.79
2023-05-02T22:06:05.019Z,11.76
2023-05-02T22:08:33.335Z,11.74
2023-05-02T22:11:09.569Z,11.73
2023-05-02T22:13:37.548Z,11.71
2023-05-02T22:16:06.160Z,11.70
2023-05-02T22:18:34.049Z,11.69
2023-05-02T22:21:02.198Z,11.68
2023-05-02T22:23:31.151Z,11.66
2023-05-02T22:25:59.124Z,11.65
2023-05-02T22:28:27.064Z,11.62
2023-05-02T22:30:54.977Z,11.58
2023-05-02T22:33:23.545Z,11.57
2023-05-02T22:35:51.436Z,11.55
2023-05-02T22:38:19.847Z,11.52
2023-05-02T22:40:47.787Z,11.48
2023-05-02T22:43:16.401Z,11.45
2023-05-02T22:45:44.156Z,11.43
2023-05-02T22:48:12.120Z,11.40
2023-05-02T22:50:40.177Z,11.38
2023-05-02T22:53:09.521Z,11.35
2023-05-02T22:55:38.875Z,11.33
2023-05-02T22:58:06.684Z,11.30
2023-05-02T23:00:34.562Z,11.26
2023-05-02T23:03:03.121Z,11.24
2023-05-02T23:05:31.034Z,11.21
2023-05-02T23:07:58.819Z,11.19
2023-05-02T23:10:26.862Z,11.16
2023-05-02T23:12:54.696Z,11.12
2023-05-02T23:15:22.499Z,11.08
2023-05-02T23:17:50.431Z,11.05
2023-05-02T23:20:20.403Z,11.45
2023-05-02T23:22:48.296Z,13.22
2023-05-02T23:25:16.066Z,14.34
2023-05-02T23:27:43.905Z,13.74
2023-05-02T23:30:12.019Z,13.09
2023-05-02T23:32:40.192Z,12.70
2023-05-02T23:35:08.722Z,12.43
2023-05-02T23:37:36.967Z,12.25
2023-05-02T23:40:09.275Z,12.09
2023-05-02T23:42:40.465Z,11.95
2023-05-02T23:45:09.562Z,11.84
2023-05-02T23:47:38.287Z,11.74
2023-05-02T23:50:07.342Z,11.64
2023-05-02T23:52:35.394Z,11.56
2023-05-02T23:55:03.369Z,11.48
2023-05-02T23:57:31.201Z,11.40
2023-05-02T23:59:58.963Z,11.33
